sensor_id;sensor_type;location;lat;lon;timestamp;pressure;altitude;pressure_sealevel;temperature;humidity
13836;BME280;6988;52.614;13.500;2023-05-24T00:01:45;54270.25;;;-143.77;65.12
13836;BME280;6988;52.614;13.500;2023-05-24T00:06:37;54227.16;;;-143.77;64.69
13836;BME280;6988;52.614;13.500;2023-05-24T00:11:29;54257.94;;;-143.77;64.37
13836;BME280;6988;52.614;13.500;2023-05-24T00:16:21;54251.78;;;-143.77;64.58
13836;BME280;6988;52.614;13.500;2023-05-24T00:21:14;54237.44;;;-143.77;64.54
13836;BME280;6988;52.614;13.500;2023-05-24T00:26:07;54249.75;;;-143.77;64.93
13836;BME280;6988;52.614;13.500;2023-05-24T00:30:59;54272.31;;;-143.77;65.06
13836;BME280;6988;52.614;13.500;2023-05-24T00:35:53;54247.69;;;-143.77;64.92
13836;BME280;6988;52.614;13.500;2023-05-24T00:40:48;54241.53;;;-143.77;64.86
13836;BME280;6988;52.614;13.500;2023-05-24T00:45:40;54284.63;;;-143.77;65.20
13836;BME280;6988;52.614;13.500;2023-05-24T00:50:32;54245.63;;;-143.77;65.39
13836;BME280;6988;52.614;13.500;2023-05-24T00:55:24;54282.56;;;-143.77;65.82
13836;BME280;6988;52.614;13.500;2023-05-24T01:00:18;54278.47;;;-143.77;66.09
13836;BME280;6988;52.614;13.500;2023-05-24T01:05:10;54282.56;;;-143.77;65.92
13836;BME280;6988;52.614;13.500;2023-05-24T01:10:09;54290.78;;;-143.77;65.83
13836;BME280;6988;52.614;13.500;2023-05-24T01:15:23;54278.47;;;-143.77;66.19
13836;BME280;6988;52.614;13.500;2023-05-24T01:20:17;54274.38;;;-143.77;66.19
13836;BME280;6988;52.614;13.500;2023-05-24T01:25:26;54253.84;;;-143.77;66.23
13836;BME280;6988;52.614;13.500;2023-05-24T01:30:20;54317.44;;;-143.77;66.23
13836;BME280;6988;52.614;13.500;2023-05-24T01:35:12;54272.31;;;-143.77;66.43
13836;BME280;6988;52.614;13.500;2023-05-24T01:40:06;54208.72;;;-143.77;65.94
13836;BME280;6988;52.614;13.500;2023-05-24T01:45:08;54294.88;;;-143.77;65.88
13836;BME280;6988;52.614;13.500;2023-05-24T01:50:14;54262.06;;;-143.77;65.74
13836;BME280;6988;52.614;13.500;2023-05-24T01:55:09;54294.88;;;-143.77;65.90
13836;BME280;6988;52.614;13.500;2023-05-24T02:00:04;54301.03;;;-143.77;65.41
13836;BME280;6988;52.614;13.500;2023-05-24T02:05:03;54274.38;;;-143.77;65.25
13836;BME280;6988;52.614;13.500;2023-05-24T02:09:59;54274.38;;;-143.77;65.47
13836;BME280;6988;52.614;13.500;2023-05-24T02:14:51;54298.97;;;-143.77;64.77
13836;BME280;6988;52.614;13.500;2023-05-24T02:19:45;54257.94;;;-143.77;64.63
13836;BME280;6988;52.614;13.500;2023-05-24T02:24:37;54272.31;;;-143.77;64.52
13836;BME280;6988;52.614;13.500;2023-05-24T02:29:31;54290.78;;;-143.77;64.68
13836;BME280;6988;52.614;13.500;2023-05-24T02:34:23;54260.00;;;-143.77;64.93
13836;BME280;6988;52.614;13.500;2023-05-24T02:39:15;54268.22;;;-143.77;65.03
13836;BME280;6988;52.614;13.500;2023-05-24T02:44:07;54255.91;;;-143.77;65.12
13836;BME280;6988;52.614;13.500;2023-05-24T02:49:00;54278.47;;;-143.77;65.00
13836;BME280;6988;52.614;13.500;2023-05-24T02:53:51;54253.84;;;-143.77;65.27
13836;BME280;6988;52.614;13.500;2023-05-24T02:58:43;54247.69;;;-143.77;65.57
13836;BME280;6988;52.614;13.500;2023-05-24T03:03:35;54284.63;;;-143.77;65.16
13836;BME280;6988;52.614;13.500;2023-05-24T03:08:30;54276.41;;;-143.77;65.45
13836;BME280;6988;52.614;13.500;2023-05-24T03:13:22;54270.25;;;-143.77;65.23
13836;BME280;6988;52.614;13.500;2023-05-24T03:18:14;54272.31;;;-143.77;65.63
13836;BME280;6988;52.614;13.500;2023-05-24T03:23:07;54290.78;;;-143.77;65.43
13836;BME280;6988;52.614;13.500;2023-05-24T03:28:01;54282.56;;;-143.77;66.07
13836;BME280;6988;52.614;13.500;2023-05-24T03:32:54;54253.84;;;-143.77;65.84
13836;BME280;6988;52.614;13.500;2023-05-24T03:37:46;54245.63;;;-143.77;65.90
13836;BME280;6988;52.614;13.500;2023-05-24T03:42:38;54218.97;;;-143.77;66.09
13836;BME280;6988;52.614;13.500;2023-05-24T03:47:32;54229.22;;;-143.77;66.38
13836;BME280;6988;52.614;13.500;2023-05-24T03:52:24;54243.59;;;-143.77;66.45
13836;BME280;6988;52.614;13.500;2023-05-24T03:57:17;54268.22;;;-143.77;66.53
13836;BME280;6988;52.614;13.500;2023-05-24T04:02:08;54241.53;;;-143.77;66.59
13836;BME280;6988;52.614;13.500;2023-05-24T04:07:02;54266.16;;;-143.77;66.79
13836;BME280;6988;52.614;13.500;2023-05-24T04:11:54;54229.22;;;-143.77;66.44
13836;BME280;6988;52.614;13.500;2023-05-24T04:16:46;54237.44;;;-143.77;66.22
13836;BME280;6988;52.614;13.500;2023-05-24T04:21:37;54245.63;;;-143.77;65.59
13836;BME280;6988;52.614;13.500;2023-05-24T04:26:33;54241.53;;;-143.77;65.62
13836;BME280;6988;52.614;13.500;2023-05-24T04:31:25;54235.38;;;-143.77;65.52
13836;BME280;6988;52.614;13.500;2023-05-24T04:36:18;54257.94;;;-143.77;65.59
13836;BME280;6988;52.614;13.500;2023-05-24T04:41:12;54262.06;;;-143.77;65.23
13836;BME280;6988;52.614;13.500;2023-05-24T04:46:05;54262.06;;;-143.77;64.84
13836;BME280;6988;52.614;13.500;2023-05-24T04:50:57;54253.84;;;-143.77;64.89
13836;BME280;6988;52.614;13.500;2023-05-24T04:55:50;54192.28;;;-143.77;64.83
13836;BME280;6988;52.614;13.500;2023-05-24T05:00:43;54245.63;;;-143.77;64.55
13836;BME280;6988;52.614;13.500;2023-05-24T05:05:37;54218.97;;;-143.77;63.63
13836;BME280;6988;52.614;13.500;2023-05-24T05:10:29;54255.91;;;-143.77;63.45
13836;BME280;6988;52.614;13.500;2023-05-24T05:15:23;54233.31;;;-143.77;63.44
13836;BME280;6988;52.614;13.500;2023-05-24T05:20:15;54225.13;;;-143.77;63.49
13836;BME280;6988;52.614;13.500;2023-05-24T05:25:08;54268.22;;;-143.77;63.16
13836;BME280;6988;52.614;13.500;2023-05-24T05:30:00;54218.97;;;-143.77;63.20
13836;BME280;6988;52.614;13.500;2023-05-24T05:34:52;54229.22;;;-143.77;63.64
13836;BME280;6988;52.614;13.500;2023-05-24T05:39:44;54239.47;;;-143.77;63.49
13836;BME280;6988;52.614;13.500;2023-05-24T05:44:37;54186.13;;;-143.77;63.08
13836;BME280;6988;52.614;13.500;2023-05-24T05:49:29;54251.78;;;-143.77;63.73
13836;BME280;6988;52.614;13.500;2023-05-24T05:54:21;54212.81;;;-143.77;63.25
13836;BME280;6988;52.614;13.500;2023-05-24T05:59:14;54212.81;;;-143.77;63.11
13836;BME280;6988;52.614;13.500;2023-05-24T06:04:07;54212.81;;;-143.77;63.36
13836;BME280;6988;52.614;13.500;2023-05-24T06:09:00;54218.97;;;-143.77;63.74
13836;BME280;6988;52.614;13.500;2023-05-24T06:13:52;54184.09;;;-143.77;62.91
13836;BME280;6988;52.614;13.500;2023-05-24T06:18:44;54198.44;;;-143.77;62.37
13836;BME280;6988;52.614;13.500;2023-05-24T06:23:37;54151.25;;;-143.77;61.93
13836;BME280;6988;52.614;13.500;2023-05-24T06:28:28;54167.66;;;-143.77;61.79
13836;BME280;6988;52.614;13.500;2023-05-24T06:33:21;54200.50;;;-143.77;61.85
13836;BME280;6988;52.614;13.500;2023-05-24T06:38:13;54173.81;;;-143.77;61.62
13836;BME280;6988;52.614;13.500;2023-05-24T06:43:06;54138.94;;;-143.77;60.15
13836;BME280;6988;52.614;13.500;2023-05-24T06:47:57;54161.50;;;-143.77;60.81
13836;BME280;6988;52.614;13.500;2023-05-24T06:52:49;54151.25;;;-143.77;60.73
13836;BME280;6988;52.614;13.500;2023-05-24T06:57:41;54141.00;;;-143.77;60.53
13836;BME280;6988;52.614;13.500;2023-05-24T07:02:34;54122.53;;;-143.77;60.01
13836;BME280;6988;52.614;13.500;2023-05-24T07:07:25;54136.91;;;-143.77;60.13
13836;BME280;6988;52.614;13.500;2023-05-24T07:12:17;54071.25;;;-143.77;59.46
13836;BME280;6988;52.614;13.500;2023-05-24T07:17:09;54028.16;;;-143.77;58.65
13836;BME280;6988;52.614;13.500;2023-05-24T07:22:02;54013.78;;;-143.77;56.98
13836;BME280;6988;52.614;13.500;2023-05-24T07:26:54;54030.22;;;-143.77;56.48
13836;BME280;6988;52.614;13.500;2023-05-24T07:31:47;54028.16;;;-143.77;55.19
13836;BME280;6988;52.614;13.500;2023-05-24T07:36:38;54060.97;;;-143.77;55.97
13836;BME280;6988;52.614;13.500;2023-05-24T07:41:33;54024.06;;;-143.77;56.04
13836;BME280;6988;52.614;13.500;2023-05-24T07:46:25;54065.09;;;-143.77;56.41
13836;BME280;6988;52.614;13.500;2023-05-24T07:51:17;54038.41;;;-143.77;57.73
13836;BME280;6988;52.614;13.500;2023-05-24T07:56:08;54040.47;;;-143.77;56.92
13836;BME280;6988;52.614;13.500;2023-05-24T08:01:02;53950.19;;;-143.77;56.28
13836;BME280;6988;52.614;13.500;2023-05-24T08:05:57;53841.44;;;-143.77;55.84
13836;BME280;6988;52.614;13.500;2023-05-24T08:10:49;53812.72;;;-143.77;52.30
13836;BME280;6988;52.614;13.500;2023-05-24T08:15:45;53818.88;;;-143.77;50.08
13836;BME280;6988;52.614;13.500;2023-05-24T08:20:39;53823.00;;;-143.77;50.02
13836;BME280;6988;52.614;13.500;2023-05-24T08:25:31;53935.84;;;-143.77;51.20
13836;BME280;6988;52.614;13.500;2023-05-24T08:30:23;53948.13;;;-143.77;52.04
13836;BME280;6988;52.614;13.500;2023-05-24T08:35:15;53983.00;;;-143.77;51.85
13836;BME280;6988;52.614;13.500;2023-05-24T08:40:09;53976.88;;;-143.77;52.67
13836;BME280;6988;52.614;13.500;2023-05-24T08:45:07;53978.91;;;-143.77;50.19
13836;BME280;6988;52.614;13.500;2023-05-24T08:50:01;54017.91;;;-143.77;50.75
13836;BME280;6988;52.614;13.500;2023-05-24T08:54:53;54013.78;;;-143.77;53.31
13836;BME280;6988;52.614;13.500;2023-05-24T08:59:48;53999.44;;;-143.77;52.51
13836;BME280;6988;52.614;13.500;2023-05-24T09:04:41;54007.63;;;-143.77;52.76
13836;BME280;6988;52.614;13.500;2023-05-24T09:09:36;53987.13;;;-143.77;53.34
13836;BME280;6988;52.614;13.500;2023-05-24T09:14:34;54011.75;;;-143.77;52.59
13836;BME280;6988;52.614;13.500;2023-05-24T09:19:27;53933.78;;;-143.77;50.93
13836;BME280;6988;52.614;13.500;2023-05-24T09:24:19;53896.84;;;-143.77;48.86
13836;BME280;6988;52.614;13.500;2023-05-24T09:29:11;53929.69;;;-143.77;48.71
13836;BME280;6988;52.614;13.500;2023-05-24T09:34:09;53954.28;;;-143.77;48.22
13836;BME280;6988;52.614;13.500;2023-05-24T09:39:07;53937.88;;;-143.77;49.39
13836;BME280;6988;52.614;13.500;2023-05-24T09:44:01;53991.22;;;-143.77;50.08
13836;BME280;6988;52.614;13.500;2023-05-24T09:48:57;53950.19;;;-143.77;50.32
13836;BME280;6988;52.614;13.500;2023-05-24T09:53:50;53958.41;;;-143.77;49.24
13836;BME280;6988;52.614;13.500;2023-05-24T09:58:44;53995.31;;;-143.77;50.25
13836;BME280;6988;52.614;13.500;2023-05-24T10:03:36;53903.00;;;-143.77;49.21
13836;BME280;6988;52.614;13.500;2023-05-24T10:08:28;53919.41;;;-143.77;48.77
13836;BME280;6988;52.614;13.500;2023-05-24T10:13:22;53896.84;;;-143.77;48.92
13836;BME280;6988;52.614;13.500;2023-05-24T10:18:15;53956.34;;;-143.77;48.67
13836;BME280;6988;52.614;13.500;2023-05-24T10:23:09;54003.53;;;-143.77;48.51
13836;BME280;6988;52.614;13.500;2023-05-24T10:28:11;54040.47;;;-143.77;49.73
13836;BME280;6988;52.614;13.500;2023-05-24T10:33:06;53966.59;;;-143.77;50.26
13836;BME280;6988;52.614;13.500;2023-05-24T10:38:05;53952.25;;;-143.77;50.71
13836;BME280;6988;52.614;13.500;2023-05-24T10:42:58;53900.94;;;-143.77;51.15
13836;BME280;6988;52.614;13.500;2023-05-24T10:47:50;53935.84;;;-143.77;48.70
13836;BME280;6988;52.614;13.500;2023-05-24T10:52:42;53845.56;;;-143.77;48.88
13836;BME280;6988;52.614;13.500;2023-05-24T10:57:38;53853.75;;;-143.77;47.34
13836;BME280;6988;52.614;13.500;2023-05-24T11:02:34;53759.41;;;-143.77;47.62
13836;BME280;6988;52.614;13.500;2023-05-24T11:07:26;53638.34;;;-143.77;46.37
13836;BME280;6988;52.614;13.500;2023-05-24T11:12:19;53589.13;;;-143.77;44.07
13836;BME280;6988;52.614;13.500;2023-05-24T11:17:12;53576.81;;;-143.77;43.30
13836;BME280;6988;52.614;13.500;2023-05-24T11:22:06;53519.38;;;-143.77;42.93
13836;BME280;6988;52.614;13.500;2023-05-24T11:27:00;53461.94;;;-143.77;41.98
13836;BME280;6988;52.614;13.500;2023-05-24T11:31:55;53472.19;;;-143.77;40.47
13836;BME280;6988;52.614;13.500;2023-05-24T11:36:50;53494.75;;;-143.77;40.74
13836;BME280;6988;52.614;13.500;2023-05-24T11:41:43;53492.69;;;-143.77;39.74
13836;BME280;6988;52.614;13.500;2023-05-24T11:46:37;53589.13;;;-143.77;39.13
13836;BME280;6988;52.614;13.500;2023-05-24T11:51:30;53751.19;;;-143.77;39.73
13836;BME280;6988;52.614;13.500;2023-05-24T11:56:24;53794.28;;;-143.77;40.91
13836;BME280;6988;52.614;13.500;2023-05-24T12:01:25;53779.91;;;-143.77;42.21
13836;BME280;6988;52.614;13.500;2023-05-24T12:06:17;53769.66;;;-143.77;42.57
13836;BME280;6988;52.614;13.500;2023-05-24T12:11:09;53777.84;;;-143.77;42.98
13836;BME280;6988;52.614;13.500;2023-05-24T12:16:03;53498.84;;;-143.77;42.29
13836;BME280;6988;52.614;13.500;2023-05-24T12:20:55;53736.81;;;-143.77;42.65
13836;BME280;6988;52.614;13.500;2023-05-24T12:25:47;53496.81;;;-143.77;41.10
13836;BME280;6988;52.614;13.500;2023-05-24T12:30:39;53656.81;;;-143.77;39.48
13836;BME280;6988;52.614;13.500;2023-05-24T12:35:34;53531.69;;;-143.77;39.28
13836;BME280;6988;52.614;13.500;2023-05-24T12:40:26;53605.53;;;-143.77;40.25
13836;BME280;6988;52.614;13.500;2023-05-24T12:45:18;53484.50;;;-143.77;40.03
13836;BME280;6988;52.614;13.500;2023-05-24T12:50:12;53634.25;;;-143.77;40.45
13836;BME280;6988;52.614;13.500;2023-05-24T12:55:08;53673.22;;;-143.77;40.36
13836;BME280;6988;52.614;13.500;2023-05-24T13:00:00;53691.69;;;-143.77;40.62
13836;BME280;6988;52.614;13.500;2023-05-24T13:04:56;53710.16;;;-143.77;41.08
13836;BME280;6988;52.614;13.500;2023-05-24T13:09:48;53712.22;;;-143.77;41.78
13836;BME280;6988;52.614;13.500;2023-05-24T13:14:41;53704.00;;;-143.77;41.27
13836;BME280;6988;52.614;13.500;2023-05-24T13:19:34;53732.72;;;-143.77;41.07
13836;BME280;6988;52.614;13.500;2023-05-24T13:24:26;53712.22;;;-143.77;41.22
13836;BME280;6988;52.614;13.500;2023-05-24T13:29:18;53660.91;;;-143.77;40.74
13836;BME280;6988;52.614;13.500;2023-05-24T13:34:12;53521.41;;;-143.77;39.41
13836;BME280;6988;52.614;13.500;2023-05-24T13:39:05;53494.75;;;-143.77;38.90
13836;BME280;6988;52.614;13.500;2023-05-24T13:43:59;53494.75;;;-143.77;37.62
13836;BME280;6988;52.614;13.500;2023-05-24T13:48:51;53441.41;;;-143.77;37.24
13836;BME280;6988;52.614;13.500;2023-05-24T13:53:44;53459.88;;;-143.77;37.21
13836;BME280;6988;52.614;13.500;2023-05-24T13:58:37;53566.56;;;-143.77;37.50
13836;BME280;6988;52.614;13.500;2023-05-24T14:03:32;53580.91;;;-143.77;37.85
13836;BME280;6988;52.614;13.500;2023-05-24T14:08:24;53543.97;;;-143.77;37.62
13836;BME280;6988;52.614;13.500;2023-05-24T14:13:18;53447.56;;;-143.77;38.65
13836;BME280;6988;52.614;13.500;2023-05-24T14:18:10;53478.34;;;-143.77;36.93
13836;BME280;6988;52.614;13.500;2023-05-24T14:23:02;53513.22;;;-143.77;37.35
13836;BME280;6988;52.614;13.500;2023-05-24T14:27:54;53466.03;;;-143.77;37.17
13836;BME280;6988;52.614;13.500;2023-05-24T14:32:47;53650.66;;;-143.77;38.03
13836;BME280;6988;52.614;13.500;2023-05-24T14:37:39;53548.09;;;-143.77;38.50
13836;BME280;6988;52.614;13.500;2023-05-24T14:42:31;53502.97;;;-143.77;38.98
13836;BME280;6988;52.614;13.500;2023-05-24T14:47:23;53574.75;;;-143.77;37.76
13836;BME280;6988;52.614;13.500;2023-05-24T14:52:17;53621.94;;;-143.77;37.79
13836;BME280;6988;52.614;13.500;2023-05-24T14:57:08;53531.69;;;-143.77;37.78
13836;BME280;6988;52.614;13.500;2023-05-24T15:02:00;53556.28;;;-143.77;37.65
13836;BME280;6988;52.614;13.500;2023-05-24T15:06:52;53665.03;;;-143.77;38.49
13836;BME280;6988;52.614;13.500;2023-05-24T15:11:45;53671.19;;;-143.77;38.28
13836;BME280;6988;52.614;13.500;2023-05-24T15:16:37;53599.38;;;-143.77;39.32
13836;BME280;6988;52.614;13.500;2023-05-24T15:21:29;53566.56;;;-143.77;38.10
13836;BME280;6988;52.614;13.500;2023-05-24T15:26:21;53632.19;;;-143.77;38.62
13836;BME280;6988;52.614;13.500;2023-05-24T15:31:14;53691.69;;;-143.77;39.83
13836;BME280;6988;52.614;13.500;2023-05-24T15:36:07;53609.63;;;-143.77;39.80
13836;BME280;6988;52.614;13.500;2023-05-24T15:40:59;53605.53;;;-143.77;38.51
13836;BME280;6988;52.614;13.500;2023-05-24T15:45:52;53580.91;;;-143.77;37.96
13836;BME280;6988;52.614;13.500;2023-05-24T15:50:46;53667.06;;;-143.77;39.20
13836;BME280;6988;52.614;13.500;2023-05-24T15:55:38;53574.75;;;-143.77;39.30
13836;BME280;6988;52.614;13.500;2023-05-24T16:00:30;53580.91;;;-143.77;38.33
13836;BME280;6988;52.614;13.500;2023-05-24T16:05:22;53582.97;;;-143.77;38.66
13836;BME280;6988;52.614;13.500;2023-05-24T16:10:16;53607.59;;;-143.77;38.42
13836;BME280;6988;52.614;13.500;2023-05-24T16:15:10;53601.44;;;-143.77;38.60
13836;BME280;6988;52.614;13.500;2023-05-24T16:20:02;53656.81;;;-143.77;38.51
13836;BME280;6988;52.614;13.500;2023-05-24T16:24:54;53683.50;;;-143.77;38.96
13836;BME280;6988;52.614;13.500;2023-05-24T16:29:47;53708.09;;;-143.77;39.76
13836;BME280;6988;52.614;13.500;2023-05-24T16:34:39;53720.41;;;-143.77;39.72
13836;BME280;6988;52.614;13.500;2023-05-24T16:39:31;53714.25;;;-143.77;40.49
13836;BME280;6988;52.614;13.500;2023-05-24T16:44:26;53753.25;;;-143.77;40.25
13836;BME280;6988;52.614;13.500;2023-05-24T16:49:19;53775.81;;;-143.77;40.54
13836;BME280;6988;52.614;13.500;2023-05-24T16:54:11;53798.38;;;-143.77;40.91
13836;BME280;6988;52.614;13.500;2023-05-24T16:59:03;53786.06;;;-143.77;41.80
13836;BME280;6988;52.614;13.500;2023-05-24T17:03:55;53810.69;;;-143.77;41.89
13836;BME280;6988;52.614;13.500;2023-05-24T17:08:48;53802.47;;;-143.77;42.36
13836;BME280;6988;52.614;13.500;2023-05-24T17:13:40;53835.31;;;-143.77;43.10
13836;BME280;6988;52.614;13.500;2023-05-24T17:18:32;53847.59;;;-143.77;43.03
13836;BME280;6988;52.614;13.500;2023-05-24T17:23:25;53876.34;;;-143.77;43.36
13836;BME280;6988;52.614;13.500;2023-05-24T17:28:19;53853.75;;;-143.77;43.66
13836;BME280;6988;52.614;13.500;2023-05-24T17:33:10;53855.81;;;-143.77;44.17
13836;BME280;6988;52.614;13.500;2023-05-24T17:38:03;53855.81;;;-143.77;43.84
13836;BME280;6988;52.614;13.500;2023-05-24T17:42:54;53872.22;;;-143.77;44.79
13836;BME280;6988;52.614;13.500;2023-05-24T17:47:47;53872.22;;;-143.77;45.48
13836;BME280;6988;52.614;13.500;2023-05-24T17:52:39;53898.91;;;-143.77;45.93
13836;BME280;6988;52.614;13.500;2023-05-24T17:57:31;53966.59;;;-143.77;46.73
13836;BME280;6988;52.614;13.500;2023-05-24T18:02:23;53927.63;;;-143.77;46.54
13836;BME280;6988;52.614;13.500;2023-05-24T18:07:16;53929.69;;;-143.77;47.56
13836;BME280;6988;52.614;13.500;2023-05-24T18:12:08;53941.97;;;-143.77;48.10
13836;BME280;6988;52.614;13.500;2023-05-24T18:17:01;53921.47;;;-143.77;48.65
13836;BME280;6988;52.614;13.500;2023-05-24T18:21:53;53941.97;;;-143.77;49.71
13836;BME280;6988;52.614;13.500;2023-05-24T18:26:46;53964.56;;;-143.77;50.04
13836;BME280;6988;52.614;13.500;2023-05-24T18:31:38;54007.63;;;-143.77;51.06
13836;BME280;6988;52.614;13.500;2023-05-24T18:36:30;54003.53;;;-143.77;51.17
13836;BME280;6988;52.614;13.500;2023-05-24T18:41:24;53958.41;;;-143.77;51.75
13836;BME280;6988;52.614;13.500;2023-05-24T18:46:18;53987.13;;;-143.77;52.73
13836;BME280;6988;52.614;13.500;2023-05-24T18:51:10;53966.59;;;-143.77;52.75
13836;BME280;6988;52.614;13.500;2023-05-24T18:56:02;53999.44;;;-143.77;53.21
13836;BME280;6988;52.614;13.500;2023-05-24T19:00:54;53997.38;;;-143.77;53.75
13836;BME280;6988;52.614;13.500;2023-05-24T19:05:47;53999.44;;;-143.77;54.40
13836;BME280;6988;52.614;13.500;2023-05-24T19:10:39;54007.63;;;-143.77;54.56
13836;BME280;6988;52.614;13.500;2023-05-24T19:15:30;54011.75;;;-143.77;55.39
13836;BME280;6988;52.614;13.500;2023-05-24T19:20:23;54017.91;;;-143.77;55.63
13836;BME280;6988;52.614;13.500;2023-05-24T19:25:16;54028.16;;;-143.77;56.10
13836;BME280;6988;52.614;13.500;2023-05-24T19:30:09;54040.47;;;-143.77;56.47
13836;BME280;6988;52.614;13.500;2023-05-24T19:35:01;54026.09;;;-143.77;56.71
13836;BME280;6988;52.614;13.500;2023-05-24T19:39:53;54038.41;;;-143.77;56.86
13836;BME280;6988;52.614;13.500;2023-05-24T19:44:46;54063.03;;;-143.77;57.19
13836;BME280;6988;52.614;13.500;2023-05-24T19:49:38;54060.97;;;-143.77;57.43
13836;BME280;6988;52.614;13.500;2023-05-24T19:54:30;54058.94;;;-143.77;57.72
13836;BME280;6988;52.614;13.500;2023-05-24T19:59:21;54089.72;;;-143.77;58.03
13836;BME280;6988;52.614;13.500;2023-05-24T20:04:14;54065.09;;;-143.77;58.08
13836;BME280;6988;52.614;13.500;2023-05-24T20:09:06;54067.13;;;-143.77;58.67
13836;BME280;6988;52.614;13.500;2023-05-24T20:13:58;54093.81;;;-143.77;59.07
13836;BME280;6988;52.614;13.500;2023-05-24T20:18:50;54089.72;;;-143.77;59.37
13836;BME280;6988;52.614;13.500;2023-05-24T20:23:43;54110.22;;;-143.77;59.67
13836;BME280;6988;52.614;13.500;2023-05-24T20:28:35;54110.22;;;-143.77;59.92
13836;BME280;6988;52.614;13.500;2023-05-24T20:33:27;54083.56;;;-143.77;60.19
13836;BME280;6988;52.614;13.500;2023-05-24T20:38:20;54108.16;;;-143.77;60.41
13836;BME280;6988;52.614;13.500;2023-05-24T20:43:14;54132.78;;;-143.77;60.80
13836;BME280;6988;52.614;13.500;2023-05-24T20:48:06;54120.47;;;-143.77;61.29
13836;BME280;6988;52.614;13.500;2023-05-24T20:52:57;54099.97;;;-143.77;61.46
13836;BME280;6988;52.614;13.500;2023-05-24T20:57:51;54167.66;;;-143.77;62.00
13836;BME280;6988;52.614;13.500;2023-05-24T21:02:44;54161.50;;;-143.77;62.05
13836;BME280;6988;52.614;13.500;2023-05-24T21:07:36;54159.47;;;-143.77;62.54
13836;BME280;6988;52.614;13.500;2023-05-24T21:12:29;54161.50;;;-143.77;62.80
13836;BME280;6988;52.614;13.500;2023-05-24T21:17:21;54169.72;;;-143.77;62.53
13836;BME280;6988;52.614;13.500;2023-05-24T21:22:14;54159.47;;;-143.77;63.05
13836;BME280;6988;52.614;13.500;2023-05-24T21:27:06;54204.59;;;-143.77;63.08
13836;BME280;6988;52.614;13.500;2023-05-24T21:31:58;54159.47;;;-143.77;63.49
13836;BME280;6988;52.614;13.500;2023-05-24T21:36:49;54177.94;;;-143.77;64.32
13836;BME280;6988;52.614;13.500;2023-05-24T21:41:43;54198.44;;;-143.77;64.87
13836;BME280;6988;52.614;13.500;2023-05-24T22:04:50;54233.31;;;-143.77;66.27
13836;BME280;6988;52.614;13.500;2023-05-24T22:09:42;54229.22;;;-143.77;67.23
13836;BME280;6988;52.614;13.500;2023-05-24T22:14:34;54202.56;;;-143.77;67.41
13836;BME280;6988;52.614;13.500;2023-05-24T22:19:26;54229.22;;;-143.77;67.90
13836;BME280;6988;52.614;13.500;2023-05-24T22:24:22;54221.03;;;-143.77;68.95
13836;BME280;6988;52.614;13.500;2023-05-24T22:29:14;54241.53;;;-143.77;69.28
13836;BME280;6988;52.614;13.500;2023-05-24T22:34:06;54249.75;;;-143.77;69.13
13836;BME280;6988;52.614;13.500;2023-05-24T22:38:58;54221.03;;;-143.77;69.08
13836;BME280;6988;52.614;13.500;2023-05-24T22:43:52;54227.16;;;-143.77;69.41
13836;BME280;6988;52.614;13.500;2023-05-24T22:48:44;54249.75;;;-143.77;69.17
13836;BME280;6988;52.614;13.500;2023-05-24T22:53:39;54239.47;;;-143.77;69.59
13836;BME280;6988;52.614;13.500;2023-05-24T22:58:31;54245.63;;;-143.77;69.55
13836;BME280;6988;52.614;13.500;2023-05-24T23:03:24;54237.44;;;-143.77;69.73
13836;BME280;6988;52.614;13.500;2023-05-24T23:08:16;54270.25;;;-143.77;69.89
13836;BME280;6988;52.614;13.500;2023-05-24T23:13:08;54257.94;;;-143.77;70.53
13836;BME280;6988;52.614;13.500;2023-05-24T23:17:59;54264.09;;;-143.77;69.93
13836;BME280;6988;52.614;13.500;2023-05-24T23:22:54;54233.31;;;-143.77;70.31
13836;BME280;6988;52.614;13.500;2023-05-24T23:27:48;54260.00;;;-143.77;70.15
13836;BME280;6988;52.614;13.500;2023-05-24T23:32:40;54237.44;;;-143.77;69.85
13836;BME280;6988;52.614;13.500;2023-05-24T23:37:32;54245.63;;;-143.77;70.02
13836;BME280;6988;52.614;13.500;2023-05-24T23:42:26;54245.63;;;-143.77;70.21
13836;BME280;6988;52.614;13.500;2023-05-24T23:47:18;54249.75;;;-143.77;70.42
13836;BME280;6988;52.614;13.500;2023-05-24T23:52:09;54251.78;;;-143.77;70.79
13836;BME280;6988;52.614;13.500;2023-05-24T23:57:02;54272.31;;;-143.77;70.75
